createdAt,value
2023-12-11T00:00:19.861Z,0.00
2023-12-11T00:01:19.965Z,0.00
2023-12-11T00:02:19.819Z,0.00
2023-12-11T00:03:19.898Z,0.00
2023-12-11T00:04:19.942Z,0.00
2023-12-11T00:05:19.876Z,0.00
2023-12-11T00:06:19.781Z,0.00
2023-12-11T00:07:19.819Z,0.00
2023-12-11T00:08:19.772Z,0.00
2023-12-11T00:09:19.745Z,0.00
2023-12-11T00:10:19.812Z,0.00
2023-12-11T00:11:19.816Z,0.00
2023-12-11T00:12:19.730Z,0.00
2023-12-11T00:13:19.722Z,0.00
2023-12-11T00:14:19.829Z,0.00
2023-12-11T00:15:19.707Z,0.00
2023-12-11T00:16:19.698Z,0.00
2023-12-11T00:17:19.710Z,0.00
2023-12-11T00:18:19.777Z,0.00
2023-12-11T00:19:19.889Z,0.00
2023-12-11T00:20:19.631Z,0.00
2023-12-11T00:21:19.642Z,0.00
2023-12-11T00:22:19.645Z,0.00
2023-12-11T00:23:19.669Z,0.00
2023-12-11T00:24:19.595Z,0.00
2023-12-11T00:25:19.583Z,0.00
2023-12-11T00:26:19.576Z,0.00
2023-12-11T00:27:19.573Z,0.00
2023-12-11T00:28:19.595Z,0.00
2023-12-11T00:29:19.563Z,0.00
2023-12-11T00:30:19.550Z,0.00
2023-12-11T00:31:19.557Z,0.00
2023-12-11T00:32:19.514Z,0.00
2023-12-11T00:33:19.575Z,0.00
2023-12-11T00:34:19.583Z,0.00
2023-12-11T00:35:19.471Z,0.00
2023-12-11T00:36:19.456Z,0.00
2023-12-11T00:37:19.446Z,0.00
2023-12-11T00:38:19.440Z,0.00
2023-12-11T00:39:19.477Z,0.00
2023-12-11T00:40:19.464Z,0.00
2023-12-11T00:41:19.477Z,0.00
2023-12-11T00:42:19.383Z,0.00
2023-12-11T00:43:19.395Z,0.00
2023-12-11T00:44:19.380Z,0.00
2023-12-11T00:45:19.400Z,0.00
2023-12-11T00:46:19.353Z,0.00
2023-12-11T00:47:19.415Z,0.00
2023-12-11T00:48:19.414Z,0.00
2023-12-11T00:49:19.391Z,0.00
2023-12-11T00:50:19.337Z,0.00
2023-12-11T00:51:19.311Z,0.00
2023-12-11T00:52:19.307Z,0.00
2023-12-11T00:53:19.358Z,0.00
2023-12-11T00:54:19.283Z,0.00
2023-12-11T00:55:19.270Z,0.00
2023-12-11T00:56:19.300Z,0.00
2023-12-11T00:57:19.245Z,0.00
2023-12-11T00:58:19.338Z,0.00
2023-12-11T00:59:19.242Z,0.00
2023-12-11T01:00:19.219Z,0.00
2023-12-11T01:01:19.233Z,0.00
2023-12-11T01:02:19.218Z,0.00
2023-12-11T01:03:19.225Z,0.00
2023-12-11T01:04:19.297Z,0.00
2023-12-11T01:05:19.221Z,0.00
2023-12-11T01:06:19.144Z,0.00
2023-12-11T01:07:19.155Z,0.00
2023-12-11T01:08:19.139Z,0.00
2023-12-11T01:09:19.160Z,0.00
2023-12-11T01:10:19.128Z,0.00
2023-12-11T01:11:19.080Z,0.00
2023-12-11T01:12:19.072Z,0.00
2023-12-11T01:13:19.088Z,0.00
2023-12-11T01:14:19.080Z,0.00
2023-12-11T01:15:19.090Z,0.00
2023-12-11T01:16:19.190Z,0.00
2023-12-11T01:17:37.553Z,0.00
2023-12-11T01:18:19.074Z,0.00
2023-12-11T01:19:19.112Z,0.00
2023-12-11T01:20:19.025Z,0.00
2023-12-11T01:21:19.012Z,0.00
2023-12-11T01:22:19.037Z,0.00
2023-12-11T01:23:18.966Z,0.00
2023-12-11T01:24:18.989Z,0.00
2023-12-11T01:25:19.015Z,0.00
2023-12-11T01:26:18.964Z,0.00
2023-12-11T01:27:18.919Z,0.00
2023-12-11T01:28:18.948Z,0.00
2023-12-11T01:29:18.904Z,0.00
2023-12-11T01:30:18.890Z,0.00
2023-12-11T01:31:18.872Z,0.00
2023-12-11T01:32:18.908Z,0.00
2023-12-11T01:33:18.987Z,0.00
2023-12-11T01:34:18.927Z,0.00
2023-12-11T01:35:18.874Z,0.00
2023-12-11T01:36:18.864Z,0.00
2023-12-11T01:37:18.865Z,0.00
2023-12-11T01:38:18.816Z,0.00
2023-12-11T01:39:18.833Z,0.00
2023-12-11T01:40:18.831Z,0.00
2023-12-11T01:41:18.766Z,0.00
2023-12-11T01:42:18.750Z,0.00
2023-12-11T01:43:19.716Z,0.00
2023-12-11T01:44:20.456Z,0.00
2023-12-11T01:45:18.727Z,0.00
2023-12-11T01:46:18.712Z,0.00
2023-12-11T01:47:18.706Z,0.00
2023-12-11T01:48:18.808Z,0.00
2023-12-11T01:49:18.772Z,0.00
2023-12-11T01:50:18.716Z,0.00
2023-12-11T01:51:18.710Z,0.00
2023-12-11T01:52:18.649Z,0.00
2023-12-11T01:53:18.646Z,0.00
2023-12-11T01:54:18.634Z,0.00
2023-12-11T01:55:18.657Z,0.00
2023-12-11T01:56:18.673Z,0.00
2023-12-11T01:57:18.601Z,0.00
2023-12-11T01:58:18.577Z,0.00
2023-12-11T01:59:18.593Z,0.00
2023-12-11T02:00:18.575Z,0.00
2023-12-11T02:01:18.663Z,0.00
2023-12-11T02:02:18.576Z,0.00
2023-12-11T02:03:18.569Z,0.00
2023-12-11T02:04:18.672Z,0.00
2023-12-11T02:05:18.523Z,0.00
2023-12-11T02:06:18.552Z,0.00
2023-12-11T02:07:18.513Z,0.00
2023-12-11T02:08:18.505Z,0.00
2023-12-11T02:09:18.482Z,0.00
2023-12-11T02:10:18.529Z,0.00
2023-12-11T02:11:18.462Z,0.00
2023-12-11T02:12:18.441Z,0.00
2023-12-11T02:13:18.486Z,0.00
2023-12-11T02:14:18.444Z,0.00
2023-12-11T02:15:18.399Z,0.00
2023-12-11T02:16:18.486Z,0.00
2023-12-11T02:17:18.383Z,0.00
2023-12-11T02:18:18.516Z,0.00
2023-12-11T02:19:18.428Z,0.00
2023-12-11T02:20:18.410Z,0.00
2023-12-11T02:21:18.349Z,0.00
2023-12-11T02:22:18.341Z,0.00
2023-12-11T02:23:18.339Z,0.00
2023-12-11T02:24:18.324Z,0.00
2023-12-11T02:25:18.318Z,0.00
2023-12-11T02:26:18.324Z,0.00
2023-12-11T02:27:18.343Z,0.00
2023-12-11T02:28:18.307Z,0.00
2023-12-11T02:29:18.247Z,0.00
2023-12-11T02:30:18.267Z,0.00
2023-12-11T02:31:18.306Z,0.00
2023-12-11T02:32:18.228Z,0.00
2023-12-11T02:33:18.214Z,0.00
2023-12-11T02:34:18.270Z,0.00
2023-12-11T02:35:18.250Z,0.00
2023-12-11T02:36:18.185Z,0.00
2023-12-11T02:37:18.202Z,0.00
2023-12-11T02:38:18.226Z,0.00
2023-12-11T02:39:18.148Z,0.00
2023-12-11T02:40:18.205Z,0.00
2023-12-11T02:41:18.146Z,0.00
2023-12-11T02:42:18.133Z,0.00
2023-12-11T02:43:18.160Z,0.00
2023-12-11T02:44:18.158Z,0.00
2023-12-11T02:45:18.110Z,0.00
2023-12-11T02:46:18.142Z,0.00
2023-12-11T02:47:18.097Z,0.00
2023-12-11T02:48:18.137Z,0.00
2023-12-11T02:49:18.119Z,0.00
2023-12-11T02:50:18.040Z,0.00
2023-12-11T02:51:18.061Z,0.00
2023-12-11T02:52:18.062Z,0.00
2023-12-11T02:53:18.031Z,0.00
2023-12-11T02:54:18.007Z,0.00
2023-12-11T02:55:18.035Z,0.00
2023-12-11T02:56:18.027Z,0.00
2023-12-11T02:57:17.976Z,0.00
2023-12-11T02:58:17.983Z,0.00
2023-12-11T02:59:17.964Z,0.00
2023-12-11T03:00:17.989Z,0.00
2023-12-11T03:01:18.010Z,0.00
2023-12-11T03:02:17.920Z,0.00
2023-12-11T03:03:17.956Z,0.00
2023-12-11T03:04:17.971Z,0.00
2023-12-11T03:05:17.894Z,0.00
2023-12-11T03:06:17.921Z,0.00
2023-12-11T03:07:17.874Z,0.00
2023-12-11T03:08:17.848Z,0.00
2023-12-11T03:09:17.844Z,0.00
2023-12-11T03:10:17.901Z,0.00
2023-12-11T03:11:17.801Z,0.00
2023-12-11T03:12:17.811Z,0.00
2023-12-11T03:13:17.838Z,0.00
2023-12-11T03:14:17.794Z,0.00
2023-12-11T03:15:17.800Z,0.00
2023-12-11T03:16:17.797Z,0.00
2023-12-11T03:17:17.794Z,0.00
2023-12-11T03:18:17.820Z,0.00
2023-12-11T03:19:17.825Z,0.00
2023-12-11T03:20:17.765Z,0.00
2023-12-11T03:21:17.746Z,0.00
2023-12-11T03:22:19.198Z,0.00
2023-12-11T03:23:17.687Z,0.00
2023-12-11T03:24:17.668Z,0.00
2023-12-11T03:25:17.755Z,0.00
2023-12-11T03:26:17.641Z,0.00
2023-12-11T03:27:17.676Z,0.00
2023-12-11T03:28:17.775Z,0.00
2023-12-11T03:29:17.630Z,0.00
2023-12-11T03:30:17.618Z,0.00
2023-12-11T03:31:17.601Z,0.00
2023-12-11T03:32:17.576Z,0.00
2023-12-11T03:33:17.613Z,0.00
2023-12-11T03:34:17.675Z,0.00
2023-12-11T03:35:17.578Z,0.00
2023-12-11T03:36:17.549Z,0.00
2023-12-11T03:37:17.577Z,0.00
2023-12-11T03:38:17.546Z,0.00
2023-12-11T03:39:17.505Z,0.00
2023-12-11T03:40:17.593Z,0.00
2023-12-11T03:41:17.502Z,0.00
2023-12-11T03:42:17.513Z,0.00
2023-12-11T03:43:17.577Z,0.00
2023-12-11T03:44:17.452Z,0.00
2023-12-11T03:45:17.443Z,0.00
2023-12-11T03:46:17.483Z,0.00
2023-12-11T03:47:17.450Z,0.00
2023-12-11T03:48:17.528Z,0.00
2023-12-11T03:49:17.486Z,0.00
2023-12-11T03:50:17.448Z,0.00
2023-12-11T03:51:17.395Z,0.00
2023-12-11T03:52:17.394Z,0.00
2023-12-11T03:53:17.383Z,0.00
2023-12-11T03:54:17.357Z,0.00
2023-12-11T03:55:17.455Z,0.00
2023-12-11T03:56:17.334Z,0.00
2023-12-11T03:57:17.323Z,0.00
2023-12-11T03:58:17.359Z,0.00
2023-12-11T03:59:17.309Z,0.00
2023-12-11T04:00:17.319Z,0.00
2023-12-11T04:01:17.340Z,0.00
2023-12-11T04:02:17.381Z,0.00
2023-12-11T04:03:17.263Z,0.00
2023-12-11T04:04:17.354Z,0.00
2023-12-11T04:05:17.274Z,0.00
2023-12-11T04:06:17.297Z,0.00
2023-12-11T04:07:17.332Z,0.00
2023-12-11T04:08:17.212Z,0.00
2023-12-11T04:09:17.191Z,0.00
2023-12-11T04:10:17.258Z,0.00
2023-12-11T04:11:17.213Z,0.00
2023-12-11T04:12:17.193Z,0.00
2023-12-11T04:13:17.206Z,0.00
2023-12-11T04:14:17.181Z,0.00
2023-12-11T04:15:17.137Z,0.00
2023-12-11T04:16:17.136Z,0.00
2023-12-11T04:17:17.171Z,0.00
2023-12-11T04:18:17.136Z,0.00
2023-12-11T04:19:17.121Z,0.00
2023-12-11T04:20:17.097Z,0.00
2023-12-11T04:21:17.072Z,0.00
2023-12-11T04:22:17.098Z,0.00
2023-12-11T04:23:17.075Z,0.00
2023-12-11T04:24:17.042Z,0.00
2023-12-11T04:25:17.080Z,0.00
2023-12-11T04:26:17.044Z,0.00
2023-12-11T04:27:17.024Z,0.00
2023-12-11T04:28:17.054Z,0.00
2023-12-11T04:29:17.009Z,0.00
2023-12-11T04:30:16.976Z,0.00
2023-12-11T04:31:16.997Z,0.00
2023-12-11T04:32:17.045Z,0.00
2023-12-11T04:33:17.063Z,0.00
2023-12-11T04:34:16.980Z,0.00
2023-12-11T04:35:16.938Z,0.00
2023-12-11T04:36:16.901Z,0.00
2023-12-11T04:37:16.930Z,0.00
2023-12-11T04:38:16.905Z,0.00
2023-12-11T04:39:16.900Z,0.00
2023-12-11T04:40:17.010Z,0.00
2023-12-11T04:41:16.946Z,0.00
2023-12-11T04:42:16.887Z,0.00
2023-12-11T04:43:16.836Z,0.00
2023-12-11T04:44:16.824Z,0.00
2023-12-11T04:45:16.870Z,0.00
2023-12-11T04:46:16.825Z,0.00
2023-12-11T04:47:16.780Z,0.00
2023-12-11T04:48:17.018Z,0.00
2023-12-11T04:49:16.849Z,0.00
2023-12-11T04:50:16.841Z,0.00
2023-12-11T04:51:16.794Z,0.00
2023-12-11T04:52:16.805Z,0.00
2023-12-11T04:53:16.779Z,0.00
2023-12-11T04:54:16.723Z,0.00
2023-12-11T04:55:16.753Z,0.00
2023-12-11T04:56:16.726Z,0.00
2023-12-11T04:57:16.692Z,0.00
2023-12-11T04:58:16.736Z,0.00
2023-12-11T04:59:16.651Z,0.00
2023-12-11T05:00:16.694Z,0.00
2023-12-11T05:01:16.797Z,0.00
2023-12-11T05:02:16.655Z,0.00
2023-12-11T05:03:16.705Z,0.00
2023-12-11T05:04:16.619Z,0.00
2023-12-11T05:05:16.683Z,0.00
2023-12-11T05:06:16.590Z,0.00
2023-12-11T05:07:16.647Z,0.00
2023-12-11T05:08:16.589Z,0.00
2023-12-11T05:09:16.569Z,0.00
2023-12-11T05:10:16.612Z,0.00
2023-12-11T05:11:16.534Z,0.00
2023-12-11T05:12:16.517Z,0.00
2023-12-11T05:13:16.619Z,0.00
2023-12-11T05:14:16.509Z,0.00
2023-12-11T05:15:16.553Z,0.00
2023-12-11T05:16:16.646Z,0.00
2023-12-11T05:17:16.590Z,0.00
2023-12-11T05:18:16.481Z,0.00
2023-12-11T05:19:16.563Z,0.00
2023-12-11T05:20:16.485Z,0.00
2023-12-11T05:21:16.444Z,0.00
2023-12-11T05:22:16.436Z,0.00
2023-12-11T05:23:16.398Z,0.00
2023-12-11T05:24:16.413Z,0.00
2023-12-11T05:25:16.587Z,0.00
2023-12-11T05:26:16.395Z,0.00
2023-12-11T05:27:16.376Z,0.00
2023-12-11T05:28:16.425Z,0.00
2023-12-11T05:29:16.343Z,0.00
2023-12-11T05:30:16.342Z,0.00
2023-12-11T05:31:16.427Z,0.00
2023-12-11T05:32:16.338Z,0.00
2023-12-11T05:33:16.443Z,0.00
2023-12-11T05:34:16.414Z,0.00
2023-12-11T05:35:16.293Z,0.00
2023-12-11T05:36:16.278Z,0.00
2023-12-11T05:37:16.249Z,0.00
2023-12-11T05:38:16.285Z,0.00
2023-12-11T05:39:16.257Z,0.00
2023-12-11T05:40:22.506Z,0.00
2023-12-11T05:41:16.301Z,0.00
2023-12-11T05:42:16.213Z,0.00
2023-12-11T05:43:16.459Z,0.00
2023-12-11T05:44:16.200Z,0.00
2023-12-11T05:45:16.157Z,0.00
2023-12-11T05:46:16.197Z,0.00
2023-12-11T05:47:16.202Z,0.00
2023-12-11T05:48:16.276Z,0.00
2023-12-11T05:49:16.197Z,0.00
2023-12-11T05:50:16.148Z,0.00
2023-12-11T05:51:16.120Z,0.00
2023-12-11T05:52:16.118Z,0.00
2023-12-11T05:53:16.080Z,0.00
2023-12-11T05:54:16.080Z,0.00
2023-12-11T05:55:16.181Z,0.00
2023-12-11T05:56:16.125Z,0.00
2023-12-11T05:57:16.047Z,0.00
2023-12-11T05:58:16.130Z,0.00
2023-12-11T05:59:16.023Z,0.00
2023-12-11T06:00:16.017Z,0.00
2023-12-11T06:01:16.071Z,0.00
2023-12-11T06:02:16.025Z,0.00
2023-12-11T06:03:15.986Z,0.00
2023-12-11T06:04:16.078Z,0.00
2023-12-11T06:05:16.029Z,0.00
2023-12-11T06:06:15.948Z,0.00
2023-12-11T06:07:15.978Z,0.00
2023-12-11T06:08:15.956Z,0.00
2023-12-11T06:09:15.943Z,0.00
2023-12-11T06:10:15.954Z,0.00
2023-12-11T06:11:15.907Z,0.00
2023-12-11T06:12:15.887Z,0.00
2023-12-11T06:13:16.084Z,0.00
2023-12-11T06:14:15.876Z,0.00
2023-12-11T06:15:15.858Z,0.00
2023-12-11T06:16:15.934Z,0.00
2023-12-11T06:17:15.829Z,0.00
2023-12-11T06:18:15.993Z,0.00
2023-12-11T06:19:15.873Z,0.00
2023-12-11T06:20:15.823Z,0.00
2023-12-11T06:21:15.786Z,0.00
2023-12-11T06:22:15.890Z,0.00
2023-12-11T06:23:15.785Z,0.00
2023-12-11T06:24:15.787Z,0.00
2023-12-11T06:25:15.887Z,0.00
2023-12-11T06:26:15.798Z,0.00
2023-12-11T06:27:15.737Z,0.00
2023-12-11T06:28:15.801Z,0.00
2023-12-11T06:29:15.728Z,0.00
2023-12-11T06:30:15.710Z,0.00
2023-12-11T06:31:15.737Z,0.00
2023-12-11T06:32:15.696Z,0.00
2023-12-11T06:33:15.659Z,0.00
2023-12-11T06:34:15.692Z,0.00
2023-12-11T06:35:15.632Z,0.00
2023-12-11T06:36:15.785Z,0.00
2023-12-11T06:37:15.687Z,0.00
2023-12-11T06:38:15.647Z,0.00
2023-12-11T06:39:15.639Z,0.00
2023-12-11T06:40:15.614Z,0.00
2023-12-11T06:41:15.602Z,0.00
2023-12-11T06:42:15.590Z,0.00
2023-12-11T06:43:15.672Z,0.00
2023-12-11T06:44:15.888Z,0.00
2023-12-11T06:45:15.579Z,0.00
2023-12-11T06:46:15.626Z,0.00
2023-12-11T06:47:17.057Z,0.00
2023-12-11T06:48:15.591Z,0.00
2023-12-11T06:49:15.621Z,0.00
2023-12-11T06:50:15.540Z,0.00
2023-12-11T06:51:15.486Z,0.00
2023-12-11T06:52:15.461Z,0.00
2023-12-11T06:53:15.463Z,0.00
2023-12-11T06:54:16.432Z,0.00
2023-12-11T06:55:15.488Z,0.00
2023-12-11T06:56:15.429Z,0.00
2023-12-11T06:57:15.378Z,0.00
2023-12-11T06:58:15.386Z,0.00
2023-12-11T06:59:15.396Z,0.00
2023-12-11T07:00:15.403Z,0.00
2023-12-11T07:01:15.527Z,0.00
2023-12-11T07:02:15.480Z,0.00
2023-12-11T07:03:15.427Z,0.00
2023-12-11T07:04:15.634Z,0.00
2023-12-11T07:05:15.488Z,0.00
2023-12-11T07:06:15.334Z,0.00
2023-12-11T07:07:15.319Z,0.00
2023-12-11T07:08:15.321Z,0.00
2023-12-11T07:09:15.257Z,1.00
2023-12-11T07:10:15.304Z,0.00
2023-12-11T07:11:15.271Z,0.00
2023-12-11T07:12:15.309Z,1.00
2023-12-11T07:13:15.306Z,1.00
2023-12-11T07:14:15.224Z,1.00
2023-12-11T07:15:15.191Z,1.00
2023-12-11T07:16:15.185Z,1.00
2023-12-11T07:17:15.176Z,1.00
2023-12-11T07:18:15.406Z,1.00
2023-12-11T07:19:15.242Z,1.00
2023-12-11T07:20:15.132Z,2.00
2023-12-11T07:21:15.161Z,1.00
2023-12-11T07:22:15.129Z,2.00
2023-12-11T07:23:15.120Z,0.00
2023-12-11T07:24:15.118Z,0.00
2023-12-11T07:25:15.216Z,2.00
2023-12-11T07:26:15.079Z,2.00
2023-12-11T07:27:24.028Z,2.00
2023-12-11T07:29:40.340Z,3.00
2023-12-11T07:30:41.374Z,3.00
2023-12-11T07:31:41.276Z,3.00
2023-12-11T07:32:41.317Z,2.00
2023-12-11T07:33:41.392Z,1.00
2023-12-11T07:34:41.496Z,2.00
2023-12-11T07:35:41.348Z,5.00
2023-12-11T07:36:41.294Z,3.00
2023-12-11T07:37:41.248Z,8.00
2023-12-11T07:38:41.226Z,8.00
2023-12-11T07:39:41.328Z,5.00
2023-12-11T07:40:52.570Z,2.00
2023-12-11T07:41:41.205Z,4.00
2023-12-11T07:42:41.331Z,4.00
2023-12-11T07:43:41.147Z,2.00
2023-12-11T07:44:41.181Z,2.00
2023-12-11T07:45:41.200Z,6.00
2023-12-11T07:46:42.993Z,7.00
2023-12-11T07:47:41.257Z,7.00
2023-12-11T07:48:41.464Z,5.00
2023-12-11T07:49:41.223Z,9.00
2023-12-11T07:50:41.127Z,9.00
2023-12-11T07:51:41.181Z,11.00
2023-12-11T07:52:41.189Z,7.00
2023-12-11T07:53:41.120Z,12.00
2023-12-11T07:54:41.176Z,9.00
2023-12-11T07:55:41.171Z,13.00
2023-12-11T07:56:41.118Z,12.00
2023-12-11T07:57:41.555Z,11.00
2023-12-11T07:58:41.171Z,10.00
2023-12-11T07:59:41.020Z,12.00
2023-12-11T08:00:40.995Z,16.00
2023-12-11T08:01:41.094Z,15.00
2023-12-11T08:02:40.966Z,8.00
2023-12-11T08:03:41.093Z,10.00
2023-12-11T08:04:40.989Z,16.00
2023-12-11T08:05:41.017Z,15.00
2023-12-11T08:06:40.998Z,22.00
2023-12-11T08:07:40.915Z,16.00
2023-12-11T08:08:40.922Z,24.00
2023-12-11T08:09:40.963Z,18.00
2023-12-11T08:10:40.958Z,20.00
2023-12-11T08:11:40.863Z,22.00
2023-12-11T08:12:40.896Z,13.00
2023-12-11T08:13:40.888Z,13.00
2023-12-11T08:14:40.891Z,14.00
2023-12-11T08:15:40.902Z,22.00
2023-12-11T08:16:40.828Z,18.00
2023-12-11T08:17:40.967Z,20.00
2023-12-11T08:18:40.955Z,28.00
2023-12-11T08:19:40.959Z,21.00
2023-12-11T08:20:40.829Z,22.00
2023-12-11T08:21:40.822Z,20.00
2023-12-11T08:22:40.747Z,26.00
2023-12-11T08:23:40.799Z,19.00
2023-12-11T08:24:40.772Z,25.00
2023-12-11T08:25:40.751Z,14.00
2023-12-11T08:26:40.805Z,18.00
2023-12-11T08:27:40.763Z,19.00
2023-12-11T08:28:40.723Z,17.00
2023-12-11T08:29:46.053Z,28.00
2023-12-11T08:30:44.097Z,18.00
2023-12-11T08:31:42.942Z,17.00
2023-12-11T08:32:41.187Z,30.00
2023-12-11T08:33:40.678Z,18.00
2023-12-11T08:34:40.695Z,22.00
2023-12-11T08:35:40.634Z,26.00
2023-12-11T08:36:40.625Z,32.00
2023-12-11T08:37:40.605Z,31.00
2023-12-11T08:38:40.582Z,22.00
2023-12-11T08:39:40.567Z,21.00
2023-12-11T08:40:40.527Z,23.00
2023-12-11T08:41:40.535Z,21.00
2023-12-11T08:42:41.833Z,26.00
2023-12-11T08:43:40.531Z,26.00
2023-12-11T08:44:40.503Z,10.00
2023-12-11T08:45:40.506Z,22.00
2023-12-11T08:46:40.482Z,28.00
2023-12-11T08:47:40.819Z,12.00
2023-12-11T08:48:40.617Z,21.00
2023-12-11T08:49:40.489Z,19.00
2023-12-11T08:50:40.441Z,33.00
2023-12-11T08:51:40.447Z,32.00
2023-12-11T08:52:40.463Z,28.00
2023-12-11T08:53:40.415Z,23.00
2023-12-11T08:54:40.526Z,17.00
2023-12-11T08:55:40.415Z,26.00
2023-12-11T08:56:40.431Z,22.00
2023-12-11T08:57:40.450Z,18.00
2023-12-11T08:58:40.390Z,20.00
2023-12-11T09:01:57.394Z,27.00
2023-12-11T09:02:02.923Z,6.00
2023-12-11T09:03:02.870Z,20.00
2023-12-11T09:04:02.845Z,19.00
2023-12-11T09:05:02.869Z,15.00
2023-12-11T09:06:05.442Z,24.00
2023-12-11T09:07:02.810Z,8.00
2023-12-11T09:08:03.459Z,16.00
2023-12-11T09:09:02.749Z,37.00
2023-12-11T09:10:02.794Z,35.00
2023-12-11T09:11:03.451Z,22.00
2023-12-11T09:12:02.773Z,21.00
2023-12-11T09:13:02.745Z,24.00
2023-12-11T09:14:02.693Z,27.00
2023-12-11T09:15:02.692Z,13.00
2023-12-11T09:16:02.689Z,15.00
2023-12-11T09:17:02.640Z,13.00
2023-12-11T09:18:02.640Z,13.00
2023-12-11T09:19:02.699Z,38.00
2023-12-11T09:20:02.745Z,27.00
2023-12-11T09:21:02.573Z,40.00
2023-12-11T09:22:02.634Z,30.00
2023-12-11T09:23:02.608Z,16.00
2023-12-11T09:24:02.604Z,29.00
2023-12-11T09:25:02.626Z,20.00
2023-12-11T09:26:02.518Z,10.00
2023-12-11T09:27:02.521Z,26.00
2023-12-11T09:28:02.593Z,35.00
2023-12-11T09:29:10.720Z,11.00
2023-12-11T09:30:02.542Z,8.00
2023-12-11T09:31:02.567Z,12.00
2023-12-11T09:32:02.538Z,45.00
2023-12-11T09:33:02.645Z,41.00
2023-12-11T09:34:02.640Z,21.00
2023-12-11T09:35:02.704Z,8.00
2023-12-11T09:36:02.448Z,32.00
2023-12-11T09:37:02.502Z,27.00
2023-12-11T09:38:02.440Z,12.00
2023-12-11T09:39:02.450Z,10.00
2023-12-11T09:40:02.438Z,27.00
2023-12-11T09:41:02.437Z,39.00
2023-12-11T09:42:02.417Z,38.00
2023-12-11T09:43:02.447Z,58.00
2023-12-11T09:44:02.355Z,57.00
2023-12-11T09:45:02.508Z,57.00
2023-12-11T09:46:02.435Z,63.00
2023-12-11T09:47:02.361Z,76.00
2023-12-11T09:48:08.837Z,68.00
2023-12-11T09:49:02.366Z,56.00
2023-12-11T09:50:02.529Z,71.00
2023-12-11T09:51:02.310Z,60.00
2023-12-11T09:52:02.296Z,58.00
2023-12-11T09:53:02.255Z,62.00
2023-12-11T09:54:02.250Z,43.00
2023-12-11T09:55:02.346Z,59.00
2023-12-11T09:56:02.273Z,100.00
2023-12-11T09:57:02.250Z,46.00
2023-12-11T09:58:02.284Z,47.00
2023-12-11T09:59:02.178Z,61.00
2023-12-11T10:00:03.176Z,87.00
2023-12-11T10:01:02.508Z,74.00
2023-12-11T10:02:02.260Z,72.00
2023-12-11T10:03:02.209Z,69.00
2023-12-11T10:04:02.211Z,69.00
2023-12-11T10:05:02.141Z,62.00
2023-12-11T10:06:02.130Z,65.00
2023-12-11T10:07:02.169Z,62.00
2023-12-11T10:08:02.172Z,61.00
2023-12-11T10:09:02.093Z,47.00
2023-12-11T10:10:02.139Z,52.00
2023-12-11T10:11:02.085Z,38.00
2023-12-11T10:12:02.038Z,36.00
2023-12-11T10:13:02.074Z,37.00
2023-12-11T10:14:02.052Z,53.00
2023-12-11T10:15:02.038Z,81.00
2023-12-11T10:16:02.059Z,108.00
2023-12-11T10:17:01.993Z,92.00
2023-12-11T10:18:02.209Z,74.00
2023-12-11T10:19:02.425Z,80.00
2023-12-11T10:20:02.042Z,43.00
2023-12-11T10:21:01.944Z,87.00
2023-12-11T10:22:02.169Z,106.00
2023-12-11T10:23:04.676Z,106.00
2023-12-11T10:24:01.924Z,126.00
2023-12-11T10:25:02.009Z,85.00
2023-12-11T10:26:01.911Z,74.00
2023-12-11T10:27:01.884Z,92.00
2023-12-11T10:28:01.924Z,62.00
2023-12-11T10:29:01.870Z,78.00
2023-12-11T10:30:01.946Z,91.00
2023-12-11T10:31:01.927Z,78.00
2023-12-11T10:32:01.869Z,35.00
2023-12-11T10:33:01.880Z,75.00
2023-12-11T10:34:01.984Z,50.00
2023-12-11T10:35:02.210Z,82.00
2023-12-11T10:36:01.798Z,94.00
2023-12-11T10:37:01.855Z,78.00
2023-12-11T10:38:01.798Z,87.00
2023-12-11T10:39:01.751Z,102.00
2023-12-11T10:40:01.806Z,76.00
2023-12-11T10:41:01.756Z,79.00
2023-12-11T10:42:01.736Z,33.00
2023-12-11T10:43:01.796Z,51.00
2023-12-11T10:44:12.382Z,81.00
2023-12-11T10:45:01.723Z,73.00
2023-12-11T10:46:01.760Z,43.00
2023-12-11T10:47:01.675Z,29.00
2023-12-11T10:48:01.744Z,94.00
2023-12-11T10:49:01.944Z,75.00
2023-12-11T10:50:01.869Z,29.00
2023-12-11T10:51:01.603Z,43.00
2023-12-11T10:52:01.724Z,72.00
2023-12-11T10:53:01.637Z,55.00
2023-12-11T10:54:01.632Z,90.00
2023-12-11T10:55:01.671Z,34.00
2023-12-11T10:56:01.695Z,78.00
2023-12-11T10:57:01.687Z,83.00
2023-12-11T10:58:01.560Z,83.00
2023-12-11T10:59:01.538Z,84.00
2023-12-11T11:00:01.540Z,49.00
2023-12-11T11:01:01.655Z,65.00
2023-12-11T11:02:01.630Z,26.00
2023-12-11T11:03:01.524Z,32.00
2023-12-11T11:04:01.518Z,89.00
2023-12-11T11:05:01.511Z,67.00
2023-12-11T11:06:01.714Z,51.00
2023-12-11T11:07:01.490Z,95.00
2023-12-11T11:08:01.529Z,69.00
2023-12-11T11:09:01.536Z,32.00
2023-12-11T11:10:01.467Z,16.00
2023-12-11T11:11:01.425Z,33.00
2023-12-11T11:12:01.454Z,83.00
2023-12-11T11:13:01.401Z,83.00
2023-12-11T11:14:01.371Z,22.00
2023-12-11T11:15:01.404Z,46.00
2023-12-11T11:16:01.438Z,94.00
2023-12-11T11:17:01.383Z,73.00
2023-12-11T11:18:01.573Z,61.00
2023-12-11T11:19:01.497Z,119.00
2023-12-11T11:20:01.447Z,104.00
2023-12-11T11:21:01.311Z,60.00
2023-12-11T11:22:01.581Z,26.00
2023-12-11T11:23:01.399Z,15.00
2023-12-11T11:24:01.407Z,9.00
2023-12-11T11:25:01.340Z,27.00
2023-12-11T11:26:01.449Z,27.00
2023-12-11T11:27:01.273Z,30.00
2023-12-11T11:28:01.321Z,23.00
2023-12-11T11:29:01.368Z,44.00
2023-12-11T11:30:01.343Z,36.00
2023-12-11T11:31:01.261Z,37.00
2023-12-11T11:32:01.225Z,49.00
2023-12-11T11:33:01.264Z,60.00
2023-12-11T11:34:01.241Z,119.00
2023-12-11T11:35:01.155Z,114.00
2023-12-11T11:36:01.130Z,59.00
2023-12-11T11:37:01.161Z,116.00
2023-12-11T11:38:01.118Z,99.00
2023-12-11T11:39:01.138Z,125.00
2023-12-11T11:40:01.419Z,126.00
2023-12-11T11:41:03.040Z,66.00
2023-12-11T11:42:01.080Z,64.00
2023-12-11T11:43:01.140Z,61.00
2023-12-11T11:44:01.070Z,46.00
2023-12-11T11:45:01.184Z,42.00
2023-12-11T11:46:01.082Z,66.00
2023-12-11T11:47:01.165Z,55.00
2023-12-11T11:48:01.048Z,45.00
2023-12-11T11:49:01.063Z,38.00
2023-12-11T11:50:01.233Z,55.00
2023-12-11T11:51:00.996Z,79.00
2023-12-11T11:52:01.009Z,90.00
2023-12-11T11:53:00.955Z,62.00
2023-12-11T11:54:00.996Z,60.00
2023-12-11T11:55:00.973Z,53.00
2023-12-11T11:56:01.078Z,72.00
2023-12-11T11:57:00.919Z,56.00
2023-12-11T11:58:00.926Z,65.00
2023-12-11T11:59:00.931Z,47.00
2023-12-11T12:00:00.918Z,42.00
2023-12-11T12:01:00.919Z,45.00
2023-12-11T12:02:01.214Z,63.00
2023-12-11T12:03:00.896Z,53.00
2023-12-11T12:04:01.000Z,54.00
2023-12-11T12:05:01.006Z,67.00
2023-12-11T12:06:00.929Z,82.00
2023-12-11T12:07:01.080Z,105.00
2023-12-11T12:08:00.777Z,123.00
2023-12-11T12:09:00.793Z,101.00
2023-12-11T12:10:01.155Z,60.00
2023-12-11T12:11:00.826Z,42.00
2023-12-11T12:12:00.940Z,91.00
2023-12-11T12:13:00.871Z,93.00
2023-12-11T12:14:00.759Z,59.00
2023-12-11T12:15:00.771Z,68.00
2023-12-11T12:16:00.830Z,63.00
2023-12-11T12:17:00.735Z,61.00
2023-12-11T12:18:00.852Z,57.00
2023-12-11T12:19:00.751Z,76.00
2023-12-11T12:20:01.113Z,82.00
2023-12-11T12:21:00.678Z,129.00
2023-12-11T12:22:00.676Z,111.00
2023-12-11T12:23:00.656Z,82.00
2023-12-11T12:24:00.648Z,88.00
2023-12-11T12:25:00.686Z,99.00
2023-12-11T12:26:00.601Z,81.00
2023-12-11T12:27:00.610Z,71.00
2023-12-11T12:28:00.631Z,63.00
2023-12-11T12:29:00.630Z,66.00
2023-12-11T12:30:00.578Z,68.00
2023-12-11T12:31:00.623Z,59.00
2023-12-11T12:32:00.535Z,61.00
2023-12-11T12:33:03.977Z,81.00
2023-12-11T12:34:00.588Z,56.00
2023-12-11T12:35:00.741Z,59.00
2023-12-11T12:36:00.510Z,102.00
2023-12-11T12:37:00.514Z,107.00
2023-12-11T12:38:00.525Z,76.00
2023-12-11T12:39:00.463Z,60.00
2023-12-11T12:40:00.622Z,51.00
2023-12-11T12:41:00.442Z,43.00
2023-12-11T12:42:00.398Z,49.00
2023-12-11T12:43:00.442Z,61.00
2023-12-11T12:44:00.418Z,54.00
2023-12-11T12:45:00.388Z,52.00
2023-12-11T12:46:00.499Z,49.00
2023-12-11T12:47:00.455Z,46.00
2023-12-11T12:48:00.424Z,61.00
2023-12-11T12:49:00.419Z,50.00
2023-12-11T12:50:00.470Z,120.00
2023-12-11T12:51:00.399Z,92.00
2023-12-11T12:52:00.369Z,30.00
2023-12-11T12:53:00.316Z,43.00
2023-12-11T12:54:00.285Z,186.00
2023-12-11T12:55:00.347Z,73.00
2023-12-11T12:56:00.301Z,88.00
2023-12-11T12:57:00.345Z,78.00
2023-12-11T12:58:00.384Z,89.00
2023-12-11T12:59:00.269Z,91.00
2023-12-11T13:00:00.300Z,97.00
2023-12-11T13:01:00.327Z,100.00
2023-12-11T13:02:00.443Z,80.00
2023-12-11T13:03:00.195Z,59.00
2023-12-11T13:04:00.369Z,52.00
2023-12-11T13:05:00.304Z,80.00
2023-12-11T13:06:00.218Z,82.00
2023-12-11T13:07:00.229Z,111.00
2023-12-11T13:08:00.169Z,98.00
2023-12-11T13:09:00.121Z,78.00
2023-12-11T13:10:00.280Z,108.00